createdAt,value
2023-02-27T00:01:48.009Z,153.37
2023-02-27T00:04:15.213Z,149.80
2023-02-27T00:06:42.719Z,153.40
2023-02-27T00:09:10.131Z,151.47
2023-02-27T00:11:38.671Z,153.00
2023-02-27T00:14:06.528Z,147.70
2023-02-27T00:16:34.439Z,157.37
2023-02-27T00:19:04.816Z,153.17
2023-02-27T00:21:34.218Z,149.47
2023-02-27T00:24:02.780Z,155.47
2023-02-27T00:26:30.237Z,150.07
2023-02-27T00:28:57.664Z,149.23
2023-02-27T00:31:25.562Z,152.87
2023-02-27T00:33:53.185Z,152.67
2023-02-27T00:36:20.634Z,146.93
2023-02-27T00:38:48.113Z,148.67
2023-02-27T00:41:15.597Z,145.70
2023-02-27T00:43:43.598Z,154.67
2023-02-27T00:46:12.270Z,234.23
2023-02-27T00:48:39.838Z,364.37
2023-02-27T00:51:09.160Z,509.37
2023-02-27T00:53:36.587Z,817.27
2023-02-27T00:56:03.876Z,663.10
2023-02-27T00:58:31.356Z,345.80
2023-02-27T01:01:00.571Z,202.33
2023-02-27T01:03:29.304Z,532.67
2023-02-27T01:05:56.406Z,370.93
2023-02-27T01:08:25.874Z,233.43
2023-02-27T01:10:56.045Z,175.67
2023-02-27T01:13:23.712Z,176.87
2023-02-27T01:15:51.451Z,184.97
2023-02-27T01:18:18.587Z,164.30
2023-02-27T01:20:45.709Z,169.67
2023-02-27T01:23:13.960Z,171.23
2023-02-27T01:25:42.862Z,178.67
2023-02-27T01:28:10.312Z,172.57
2023-02-27T01:30:37.403Z,179.40
2023-02-27T01:33:04.712Z,176.57
2023-02-27T01:35:32.165Z,156.67
2023-02-27T01:37:59.680Z,155.93
2023-02-27T01:40:28.208Z,161.13
2023-02-27T01:42:55.622Z,153.20
2023-02-27T01:45:41.296Z,148.57
2023-02-27T01:48:33.520Z,148.53
2023-02-27T01:51:01.977Z,149.83
2023-02-27T01:53:32.946Z,148.43
2023-02-27T01:56:09.531Z,153.60
2023-02-27T01:58:37.961Z,155.70
2023-02-27T02:01:05.499Z,153.10
2023-02-27T02:03:58.234Z,154.43
2023-02-27T02:06:25.787Z,152.60
2023-02-27T02:08:54.928Z,167.83
2023-02-27T02:11:24.116Z,157.67
2023-02-27T02:13:58.177Z,148.23
2023-02-27T02:16:37.188Z,158.97
2023-02-27T02:19:55.063Z,157.93
2023-02-27T02:23:27.523Z,149.67
2023-02-27T02:25:57.819Z,147.93
2023-02-27T02:28:55.416Z,148.53
2023-02-27T02:31:46.452Z,150.10
2023-02-27T02:34:46.625Z,147.30
2023-02-27T02:37:43.846Z,148.30
2023-02-27T02:40:59.827Z,150.93
2023-02-27T02:44:18.277Z,148.47
2023-02-27T02:46:52.466Z,156.53
2023-02-27T02:49:54.228Z,148.67
2023-02-27T02:52:42.625Z,145.80
2023-02-27T02:55:11.464Z,150.90
2023-02-27T02:57:54.720Z,154.37
2023-02-27T03:00:30.388Z,151.30
2023-02-27T03:03:15.449Z,148.67
2023-02-27T03:05:55.955Z,152.73
2023-02-27T03:08:29.668Z,143.37
2023-02-27T03:11:04.652Z,151.20
2023-02-27T03:13:44.727Z,151.07
2023-02-27T03:16:46.293Z,150.07
2023-02-27T03:19:45.229Z,146.53
2023-02-27T03:22:19.858Z,148.60
2023-02-27T03:24:54.662Z,148.53
2023-02-27T03:27:25.468Z,152.37
2023-02-27T03:29:58.795Z,149.07
2023-02-27T03:32:57.633Z,149.80
2023-02-27T03:35:47.354Z,151.47
2023-02-27T03:38:22.132Z,148.13
2023-02-27T03:40:52.418Z,148.33
2023-02-27T03:44:10.329Z,148.00
2023-02-27T03:46:38.160Z,151.13
2023-02-27T03:49:05.924Z,152.07
2023-02-27T03:51:33.596Z,145.17
2023-02-27T03:54:19.610Z,155.17
2023-02-27T03:57:05.231Z,155.37
2023-02-27T03:59:33.724Z,151.37
2023-02-27T04:02:02.720Z,149.47
2023-02-27T04:04:33.928Z,147.20
2023-02-27T04:08:00.599Z,151.23
2023-02-27T04:10:35.924Z,147.60
2023-02-27T04:13:06.063Z,147.60
2023-02-27T04:16:17.084Z,146.47
2023-02-27T04:19:07.985Z,149.30
2023-02-27T04:21:48.973Z,146.87
2023-02-27T04:24:46.888Z,146.70
2023-02-27T04:27:33.109Z,146.17
2023-02-27T04:30:26.308Z,150.27
2023-02-27T04:33:23.818Z,146.13
2023-02-27T04:36:06.121Z,149.37
2023-02-27T04:38:46.651Z,157.20
2023-02-27T04:41:36.392Z,157.57
2023-02-27T04:44:08.437Z,150.40
2023-02-27T04:46:37.926Z,151.93
2023-02-27T04:49:13.585Z,154.07
2023-02-27T04:51:52.550Z,153.53
2023-02-27T04:54:29.267Z,156.83
2023-02-27T04:57:02.370Z,153.43
2023-02-27T04:59:39.251Z,153.13
2023-02-27T05:02:17.928Z,155.47
2023-02-27T05:04:47.572Z,154.77
2023-02-27T05:07:25.995Z,153.23
2023-02-27T05:10:02.966Z,155.53
2023-02-27T05:12:42.429Z,148.83
2023-02-27T05:15:44.922Z,151.90
2023-02-27T05:18:17.194Z,150.47
2023-02-27T05:20:56.251Z,155.73
2023-02-27T05:23:23.727Z,154.97
2023-02-27T05:26:14.460Z,151.17
2023-02-27T05:29:11.612Z,148.43
2023-02-27T05:32:27.117Z,152.43
2023-02-27T05:34:57.204Z,149.27
2023-02-27T05:37:34.252Z,147.50
2023-02-27T05:40:08.483Z,155.90
2023-02-27T05:42:46.461Z,153.90
2023-02-27T05:45:26.028Z,154.87
2023-02-27T05:47:59.568Z,152.93
2023-02-27T05:50:30.891Z,158.87
2023-02-27T05:53:03.854Z,154.90
2023-02-27T05:55:41.709Z,156.03
2023-02-27T05:58:25.757Z,151.97
2023-02-27T06:01:05.637Z,151.23
2023-02-27T06:03:35.770Z,151.33
2023-02-27T06:06:22.772Z,155.43
2023-02-27T06:08:50.244Z,151.73
2023-02-27T06:11:18.022Z,154.37
2023-02-27T06:13:45.108Z,148.70
2023-02-27T06:16:14.138Z,153.60
2023-02-27T06:18:41.268Z,148.07
2023-02-27T06:21:08.765Z,149.00
2023-02-27T06:23:36.381Z,149.00
2023-02-27T06:26:04.024Z,148.53
2023-02-27T06:28:31.111Z,147.57
2023-02-27T06:30:58.574Z,143.47
2023-02-27T06:33:26.232Z,150.53
2023-02-27T06:35:53.838Z,143.83
2023-02-27T06:38:20.995Z,148.43
2023-02-27T06:40:48.441Z,144.93
2023-02-27T06:43:15.474Z,152.90
2023-02-27T06:45:42.761Z,149.67
2023-02-27T06:48:12.645Z,148.70
2023-02-27T06:50:39.738Z,147.93
2023-02-27T06:53:07.742Z,150.30
2023-02-27T06:55:34.796Z,148.93
2023-02-27T06:58:01.937Z,150.33
2023-02-27T07:00:29.461Z,146.23
2023-02-27T07:02:56.498Z,148.47
2023-02-27T07:05:23.921Z,149.10
2023-02-27T07:07:50.953Z,152.33
2023-02-27T07:10:18.223Z,144.57
2023-02-27T07:12:45.317Z,148.37
2023-02-27T07:15:12.737Z,147.23
2023-02-27T07:17:40.001Z,147.43
2023-02-27T07:20:10.721Z,151.83
2023-02-27T07:22:39.586Z,147.03
2023-02-27T07:25:07.976Z,149.13
2023-02-27T07:27:35.381Z,146.37
2023-02-27T07:30:02.513Z,149.13
2023-02-27T07:32:29.624Z,149.13
2023-02-27T07:34:56.640Z,149.70
2023-02-27T07:37:23.637Z,148.13
2023-02-27T07:39:50.750Z,150.50
2023-02-27T07:42:17.783Z,150.13
2023-02-27T07:44:44.884Z,150.90
2023-02-27T07:47:11.894Z,150.27
2023-02-27T07:49:39.413Z,150.97
2023-02-27T07:52:07.899Z,151.27
2023-02-27T07:54:37.579Z,148.47
2023-02-27T07:57:05.913Z,149.27
2023-02-27T07:59:33.209Z,150.77
2023-02-27T08:02:00.673Z,149.43
2023-02-27T08:04:28.145Z,148.00
2023-02-27T08:06:55.198Z,148.80
2023-02-27T08:09:22.269Z,150.57
2023-02-27T08:11:49.721Z,151.47
2023-02-27T08:14:16.793Z,153.13
2023-02-27T08:16:44.292Z,147.40
2023-02-27T08:19:13.787Z,150.90
2023-02-27T08:21:41.415Z,150.53
2023-02-27T08:24:08.939Z,151.90
2023-02-27T08:26:35.984Z,148.93
2023-02-27T08:29:03.370Z,154.40
2023-02-27T08:31:30.751Z,150.93
2023-02-27T08:34:07.881Z,153.23
2023-02-27T08:36:36.854Z,150.87
2023-02-27T08:39:04.906Z,146.17
2023-02-27T08:41:32.411Z,153.83
2023-02-27T08:43:59.893Z,156.03
2023-02-27T08:46:27.354Z,156.20
2023-02-27T08:48:54.862Z,152.37
2023-02-27T08:51:22.069Z,152.40
2023-02-27T08:53:49.206Z,151.43
2023-02-27T08:56:16.231Z,151.50
2023-02-27T08:58:43.664Z,152.37
2023-02-27T09:01:10.828Z,151.20
2023-02-27T09:03:37.883Z,152.67
2023-02-27T09:06:05.332Z,149.23
2023-02-27T09:08:32.780Z,152.70
2023-02-27T09:11:00.285Z,154.60
2023-02-27T09:13:27.416Z,152.90
2023-02-27T09:15:55.382Z,152.23
2023-02-27T09:18:23.140Z,153.13
2023-02-27T09:20:53.744Z,153.70
2023-02-27T09:23:21.249Z,150.30
2023-02-27T09:25:48.441Z,160.40
2023-02-27T09:28:15.854Z,155.57
2023-02-27T09:30:43.133Z,159.13
2023-02-27T09:33:10.281Z,150.97
2023-02-27T09:35:37.862Z,150.93
2023-02-27T09:38:05.583Z,151.40
2023-02-27T09:40:40.104Z,150.93
2023-02-27T09:43:49.783Z,155.17
2023-02-27T09:46:22.983Z,159.27
2023-02-27T09:48:58.561Z,147.83
2023-02-27T09:51:27.365Z,154.17
2023-02-27T09:54:01.970Z,156.77
2023-02-27T09:56:32.568Z,153.47
2023-02-27T09:59:39.464Z,154.07
2023-02-27T10:03:03.695Z,154.37
2023-02-27T10:05:49.323Z,154.37
2023-02-27T10:08:23.917Z,154.57
2023-02-27T10:11:01.924Z,151.13
2023-02-27T10:14:02.613Z,149.00
2023-02-27T10:16:33.135Z,158.53
2023-02-27T10:19:07.497Z,154.00
2023-02-27T10:21:44.757Z,151.60
2023-02-27T10:24:38.472Z,152.83
2023-02-27T10:27:14.488Z,156.33
2023-02-27T10:29:42.122Z,155.13
2023-02-27T10:32:18.643Z,156.97
2023-02-27T10:35:07.091Z,155.70
2023-02-27T10:37:37.473Z,153.97
2023-02-27T10:40:06.720Z,157.63
2023-02-27T10:42:39.564Z,154.87
2023-02-27T10:45:15.812Z,159.47
2023-02-27T10:47:43.886Z,161.73
2023-02-27T10:50:45.784Z,157.07
2023-02-27T10:53:28.186Z,157.67
2023-02-27T10:56:14.112Z,156.60
2023-02-27T10:58:41.586Z,153.90
2023-02-27T11:01:11.086Z,158.27
2023-02-27T11:03:41.614Z,155.60
2023-02-27T11:06:25.416Z,158.67
2023-02-27T11:09:20.401Z,159.97
2023-02-27T11:11:47.897Z,157.70
2023-02-27T11:14:34.400Z,151.07
2023-02-27T11:17:03.314Z,157.93
2023-02-27T11:19:39.177Z,153.97
2023-02-27T11:22:23.597Z,156.40
2023-02-27T11:24:53.013Z,159.57
2023-02-27T11:27:28.908Z,154.47
2023-02-27T11:30:27.492Z,155.70
2023-02-27T11:32:58.720Z,156.67
2023-02-27T11:35:33.544Z,156.97
2023-02-27T11:38:05.974Z,155.47
2023-02-27T11:40:50.888Z,155.60
2023-02-27T11:43:27.143Z,157.37
2023-02-27T11:46:37.241Z,152.87
2023-02-27T11:49:20.044Z,156.50
2023-02-27T11:52:04.649Z,154.63
2023-02-27T11:54:55.213Z,154.27
2023-02-27T11:57:28.965Z,156.00
2023-02-27T12:00:20.856Z,151.97
2023-02-27T12:03:27.270Z,155.37
2023-02-27T12:06:05.506Z,149.97
2023-02-27T12:08:49.476Z,160.73
2023-02-27T12:11:29.763Z,151.87
2023-02-27T12:14:12.842Z,155.97
2023-02-27T12:17:10.328Z,155.00
2023-02-27T12:20:00.695Z,155.40
2023-02-27T12:22:34.499Z,157.40
2023-02-27T12:25:14.125Z,154.83
2023-02-27T12:27:54.313Z,152.67
2023-02-27T12:30:43.254Z,152.47
2023-02-27T12:33:27.138Z,156.90
2023-02-27T12:36:02.086Z,151.27
2023-02-27T12:38:30.024Z,153.47
2023-02-27T12:41:13.028Z,155.40
2023-02-27T12:44:24.435Z,153.03
2023-02-27T12:47:37.376Z,157.07
2023-02-27T12:50:15.937Z,156.27
2023-02-27T12:53:06.990Z,152.87
2023-02-27T12:55:47.622Z,152.60
2023-02-27T12:58:51.744Z,153.60
2023-02-27T13:01:53.421Z,153.37
2023-02-27T13:04:27.896Z,152.07
2023-02-27T13:07:04.394Z,151.40
2023-02-27T13:09:56.305Z,153.67
2023-02-27T13:12:41.546Z,153.43
2023-02-27T13:15:29.094Z,154.07
2023-02-27T13:18:28.794Z,155.13
2023-02-27T13:21:23.909Z,154.10
2023-02-27T13:24:15.497Z,157.67
2023-02-27T13:26:52.525Z,155.90
2023-02-27T13:29:22.125Z,152.67
2023-02-27T13:32:43.140Z,150.43
2023-02-27T13:35:23.346Z,152.87
2023-02-27T13:38:03.609Z,153.77
2023-02-27T13:40:35.001Z,155.67
2023-02-27T13:43:46.439Z,158.13
2023-02-27T13:46:33.657Z,160.97
2023-02-27T13:49:14.657Z,158.20
2023-02-27T13:51:53.397Z,159.90
2023-02-27T13:54:40.404Z,155.97
2023-02-27T13:57:21.401Z,159.03
2023-02-27T13:59:55.915Z,154.73
2023-02-27T14:02:33.769Z,153.47
2023-02-27T14:05:06.681Z,155.60
2023-02-27T14:07:54.286Z,151.17
2023-02-27T14:10:27.022Z,153.40
2023-02-27T14:12:54.420Z,148.73
2023-02-27T14:15:24.604Z,154.20
2023-02-27T14:18:13.918Z,168.10
2023-02-27T14:20:49.172Z,155.07
2023-02-27T14:23:16.344Z,155.77
2023-02-27T14:26:17.232Z,157.13
2023-02-27T14:28:51.900Z,155.63
2023-02-27T14:31:45.991Z,166.83
2023-02-27T14:34:18.846Z,167.10
2023-02-27T14:36:54.279Z,155.13
2023-02-27T14:39:31.185Z,154.73
2023-02-27T14:42:44.861Z,155.23
2023-02-27T14:45:24.509Z,160.93
2023-02-27T14:47:53.202Z,171.47
2023-02-27T14:50:34.232Z,165.03
2023-02-27T14:53:02.073Z,170.43
2023-02-27T14:55:35.752Z,178.53
2023-02-27T14:58:13.871Z,170.00
2023-02-27T15:00:50.568Z,162.07
2023-02-27T15:03:20.746Z,164.70
2023-02-27T15:05:50.390Z,161.07
2023-02-27T15:08:25.528Z,167.53
2023-02-27T15:10:54.907Z,156.93
2023-02-27T15:13:28.014Z,163.53
2023-02-27T15:16:23.930Z,156.57
2023-02-27T15:19:02.660Z,152.60
2023-02-27T15:21:34.171Z,162.73
2023-02-27T15:24:05.564Z,161.40
2023-02-27T15:26:40.041Z,162.53
2023-02-27T15:29:08.890Z,161.93
2023-02-27T15:31:36.384Z,183.03
2023-02-27T15:34:04.388Z,163.40
2023-02-27T15:36:35.406Z,188.20
2023-02-27T15:39:17.919Z,247.47
2023-02-27T15:41:55.662Z,175.07
2023-02-27T15:44:47.240Z,168.00
2023-02-27T15:47:27.647Z,162.07
2023-02-27T15:50:08.940Z,163.60
2023-02-27T15:53:00.626Z,163.03
2023-02-27T15:55:52.144Z,176.40
2023-02-27T15:58:34.673Z,168.10
2023-02-27T16:01:24.753Z,168.33
2023-02-27T16:03:55.290Z,182.93
2023-02-27T16:06:28.125Z,169.70
2023-02-27T16:09:01.480Z,171.70
2023-02-27T16:11:36.128Z,324.70
2023-02-27T16:14:06.004Z,161.97
2023-02-27T16:16:37.671Z,150.33
2023-02-27T16:19:26.982Z,155.97
2023-02-27T16:22:17.821Z,153.03
2023-02-27T16:24:45.846Z,152.80
2023-02-27T16:27:31.960Z,155.43
2023-02-27T16:30:02.733Z,149.97
2023-02-27T16:32:40.607Z,158.43
2023-02-27T16:35:35.526Z,148.53
2023-02-27T16:38:03.632Z,145.63
2023-02-27T16:40:31.174Z,150.20
2023-02-27T16:42:59.144Z,151.90
2023-02-27T16:45:28.855Z,150.33
2023-02-27T16:47:59.127Z,161.37
2023-02-27T16:50:39.034Z,148.73
2023-02-27T16:53:06.468Z,193.50
2023-02-27T16:55:34.056Z,222.53
2023-02-27T16:58:01.200Z,172.10
2023-02-27T17:00:28.856Z,166.83
2023-02-27T17:02:56.027Z,174.53
2023-02-27T17:05:24.345Z,169.70
2023-02-27T17:07:51.890Z,172.30
2023-02-27T17:10:22.345Z,166.60
2023-02-27T17:12:49.975Z,165.57
2023-02-27T17:15:17.826Z,171.63
2023-02-27T17:17:45.568Z,163.87
2023-02-27T17:20:14.566Z,165.23
2023-02-27T17:22:44.163Z,163.17
2023-02-27T17:25:12.762Z,162.00
2023-02-27T17:27:42.684Z,163.03
2023-02-27T17:30:11.145Z,161.43
2023-02-27T17:32:38.728Z,174.67
2023-02-27T17:35:06.516Z,158.23
2023-02-27T17:37:33.694Z,161.47
2023-02-27T17:40:04.608Z,160.43
2023-02-27T17:42:32.526Z,164.37
2023-02-27T17:45:01.445Z,157.57
2023-02-27T17:47:28.998Z,321.83
2023-02-27T17:49:56.502Z,162.00
2023-02-27T17:52:24.025Z,199.67
2023-02-27T17:54:51.720Z,162.23
2023-02-27T17:57:19.110Z,162.77
2023-02-27T17:59:46.849Z,276.20
2023-02-27T18:02:15.260Z,158.63
2023-02-27T18:04:42.853Z,157.33
2023-02-27T18:07:10.110Z,159.73
2023-02-27T18:09:37.802Z,153.70
2023-02-27T18:12:05.345Z,181.80
2023-02-27T18:14:32.956Z,167.87
2023-02-27T18:17:00.069Z,177.67
2023-02-27T18:19:27.308Z,161.40
2023-02-27T18:21:54.453Z,160.47
2023-02-27T18:24:21.637Z,171.03
2023-02-27T18:26:49.329Z,172.00
2023-02-27T18:29:17.985Z,189.67
2023-02-27T18:31:48.328Z,174.97
2023-02-27T18:34:15.953Z,190.17
2023-02-27T18:36:43.801Z,183.77
2023-02-27T18:39:11.504Z,176.43
2023-02-27T18:41:39.174Z,180.87
2023-02-27T18:44:08.278Z,177.90
2023-02-27T18:46:37.446Z,180.33
2023-02-27T18:49:04.957Z,218.07
2023-02-27T18:51:32.372Z,182.07
2023-02-27T18:54:02.138Z,227.40
2023-02-27T18:56:31.028Z,264.00
2023-02-27T18:59:02.131Z,183.30
2023-02-27T19:01:33.757Z,190.17
2023-02-27T19:04:06.060Z,174.40
2023-02-27T19:06:37.073Z,173.80
2023-02-27T19:09:09.547Z,290.03
2023-02-27T19:11:37.068Z,160.17
2023-02-27T19:14:11.207Z,174.80
2023-02-27T19:16:38.906Z,166.00
2023-02-27T19:19:07.712Z,173.40
2023-02-27T19:21:35.988Z,177.13
2023-02-27T19:24:03.694Z,154.67
2023-02-27T19:26:34.224Z,158.30
2023-02-27T19:29:02.693Z,170.80
2023-02-27T19:31:30.175Z,172.77
2023-02-27T19:33:57.851Z,166.00
2023-02-27T19:36:28.320Z,174.80
2023-02-27T19:38:56.980Z,179.13
2023-02-27T19:41:25.038Z,181.67
2023-02-27T19:43:53.644Z,187.13
2023-02-27T19:46:30.515Z,179.57
2023-02-27T19:49:02.429Z,179.50
2023-02-27T19:51:30.118Z,176.07
2023-02-27T19:53:58.278Z,169.80
2023-02-27T19:56:27.736Z,181.67
2023-02-27T19:58:55.692Z,166.00
2023-02-27T20:01:31.913Z,176.27
2023-02-27T20:04:00.245Z,160.50
2023-02-27T20:06:31.779Z,161.50
2023-02-27T20:09:00.658Z,158.20
2023-02-27T20:11:33.132Z,164.17
2023-02-27T20:14:00.846Z,165.60
2023-02-27T20:16:30.585Z,158.77
2023-02-27T20:18:58.149Z,158.67
2023-02-27T20:21:28.604Z,175.23
2023-02-27T20:23:56.236Z,169.67
2023-02-27T20:26:29.923Z,165.43
2023-02-27T20:29:01.580Z,165.27
2023-02-27T20:31:32.658Z,158.90
2023-02-27T20:34:01.374Z,164.33
2023-02-27T20:36:29.115Z,167.97
2023-02-27T20:38:56.418Z,165.97
2023-02-27T20:41:28.253Z,160.63
2023-02-27T20:43:57.012Z,168.63
2023-02-27T20:46:28.518Z,164.67
2023-02-27T20:48:58.019Z,162.17
2023-02-27T20:51:31.345Z,162.23
2023-02-27T20:54:00.219Z,156.03
2023-02-27T20:56:32.723Z,163.60
2023-02-27T20:59:02.613Z,159.20
2023-02-27T21:01:30.490Z,157.27
2023-02-27T21:03:59.000Z,151.90
2023-02-27T21:06:26.734Z,157.87
2023-02-27T21:08:56.617Z,157.70
2023-02-27T21:11:30.135Z,153.73
2023-02-27T21:14:02.879Z,169.23
2023-02-27T21:16:31.251Z,161.37
2023-02-27T21:18:58.744Z,169.47
2023-02-27T21:21:33.740Z,169.50
2023-02-27T21:24:01.213Z,169.30
2023-02-27T21:26:38.468Z,167.77
2023-02-27T21:29:19.004Z,165.40
2023-02-27T21:31:49.181Z,169.53
2023-02-27T21:34:24.169Z,173.63
2023-02-27T21:36:52.469Z,180.63
2023-02-27T21:39:26.742Z,192.47
2023-02-27T21:41:54.903Z,191.90
2023-02-27T21:44:26.836Z,191.27
2023-02-27T21:46:54.790Z,183.80
2023-02-27T21:49:25.933Z,178.37
2023-02-27T21:51:53.608Z,171.67
2023-02-27T21:54:21.298Z,182.87
2023-02-27T21:56:49.590Z,166.77
2023-02-27T21:59:19.312Z,192.20
2023-02-27T22:01:48.144Z,177.10
2023-02-27T22:04:18.221Z,170.60
2023-02-27T22:06:46.051Z,176.97
2023-02-27T22:09:13.673Z,171.53
2023-02-27T22:11:41.046Z,172.20
2023-02-27T22:14:10.105Z,175.73
2023-02-27T22:16:38.047Z,180.27
2023-02-27T22:19:20.022Z,174.10
2023-02-27T22:21:47.805Z,184.00
2023-02-27T22:24:15.436Z,199.53
2023-02-27T22:26:44.585Z,178.67
2023-02-27T22:29:11.745Z,181.40
2023-02-27T22:31:39.059Z,177.20
2023-02-27T22:34:12.014Z,184.60
2023-02-27T22:36:41.732Z,184.73
2023-02-27T22:39:08.924Z,208.77
2023-02-27T22:41:39.704Z,208.37
2023-02-27T22:44:07.977Z,215.27
2023-02-27T22:46:41.911Z,212.30
2023-02-27T22:49:18.308Z,198.93
2023-02-27T22:51:47.065Z,185.93
2023-02-27T22:54:15.729Z,199.40
2023-02-27T22:56:43.548Z,191.53
2023-02-27T22:59:10.714Z,201.10
2023-02-27T23:01:38.463Z,181.73
2023-02-27T23:04:11.445Z,179.93
2023-02-27T23:06:40.934Z,174.40
2023-02-27T23:09:13.617Z,172.67
2023-02-27T23:11:41.053Z,176.90
2023-02-27T23:14:09.097Z,182.43
2023-02-27T23:16:36.345Z,175.00
2023-02-27T23:19:04.844Z,175.23
2023-02-27T23:21:36.068Z,185.23
2023-02-27T23:24:15.054Z,181.23
2023-02-27T23:26:45.637Z,176.77
2023-02-27T23:29:13.568Z,188.67
2023-02-27T23:31:42.277Z,187.00
2023-02-27T23:34:10.318Z,168.03
2023-02-27T23:36:39.025Z,175.67
2023-02-27T23:39:07.444Z,176.43
2023-02-27T23:41:34.785Z,182.40
2023-02-27T23:44:02.015Z,190.47
2023-02-27T23:46:30.699Z,188.30
2023-02-27T23:49:01.923Z,188.77
2023-02-27T23:51:30.805Z,176.80
2023-02-27T23:53:59.086Z,181.80
2023-02-27T23:56:29.522Z,180.23
2023-02-27T23:59:14.818Z,176.67
